Time;durP1;ratioP1;P1;durP2;ratioP2;P2;SDS_P1;SDS_P2;PMS_P1;PMS_P2;Temp;Humidity;BMP_temperature;BMP_pressure;BME280_temperature;BME280_humidity;BME280_pressure;Samples;Min_cycle;Max_cycle;Signal;HPM_P1;HPM_P2
2022/02/25 00:01:06;;;;;;;4.20;1.25;;;;;;;2.64;87.09;100595.38;4916749;28;20167;-83
2022/02/25 00:03:32;;;;;;;3.58;1.38;;;;;;;2.58;87.25;100597.84;4897657;28;20157;-84
2022/02/25 00:05:59;;;;;;;5.22;1.85;;;;;;;2.51;87.82;100602.84;4916449;28;20051;-86
2022/02/25 00:08:25;;;;;;;2.83;1.00;;;;;;;2.41;88.37;100599.16;4916582;28;20166;-85
2022/02/25 00:10:52;;;;;;;1.95;0.82;;;;;;;2.35;88.87;100606.75;4918925;28;20065;-83
2022/02/25 00:13:18;;;;;;;3.00;1.25;;;;;;;2.28;89.18;100616.06;4904903;28;20058;-83
2022/02/25 00:15:45;;;;;;;3.00;1.58;;;;;;;2.28;88.63;100609.22;4919556;28;20185;-83
2022/02/25 00:18:12;;;;;;;3.83;0.82;;;;;;;2.39;88.34;100613.75;4898147;28;20047;-83
2022/02/25 00:20:39;;;;;;;3.72;1.23;;;;;;;2.46;87.97;100628.56;4932833;28;20055;-85
2022/02/25 00:23:06;;;;;;;1.52;0.75;;;;;;;2.55;87.14;100628.78;4916223;28;20058;-84
2022/02/25 00:25:32;;;;;;;6.30;1.10;;;;;;;2.61;86.29;100640.97;4914177;28;20051;-85
2022/02/25 00:27:59;;;;;;;3.92;0.95;;;;;;;2.68;85.86;100644.56;4932371;28;20058;-85
2022/02/25 00:30:26;;;;;;;4.53;1.00;;;;;;;2.69;84.65;100643.75;4930704;28;20051;-85
2022/02/25 00:32:52;;;;;;;1.02;0.70;;;;;;;2.64;84.90;100643.63;4924374;28;20054;-83
2022/02/25 00:35:19;;;;;;;3.20;0.75;;;;;;;2.48;85.68;100643.25;4905545;28;20055;-84
2022/02/25 00:37:45;;;;;;;1.35;0.98;;;;;;;2.36;86.42;100661.06;4917470;28;20050;-83
2022/02/25 00:40:12;;;;;;;3.13;1.25;;;;;;;2.29;86.68;100649.72;4921166;28;20051;-83
2022/02/25 00:42:39;;;;;;;2.88;1.40;;;;;;;2.21;87.37;100664.13;4921821;29;20055;-86
2022/02/25 00:45:06;;;;;;;6.68;1.00;;;;;;;2.18;87.63;100664.06;4914134;29;20058;-83
2022/02/25 00:47:33;;;;;;;6.93;1.27;;;;;;;2.12;87.20;100672.50;4921150;28;20482;-83
2022/02/25 00:49:59;;;;;;;1.50;0.73;;;;;;;2.09;87.76;100669.84;4931471;28;20051;-83
2022/02/25 00:52:26;;;;;;;1.85;0.90;;;;;;;2.09;88.31;100681.91;4912278;29;20142;-82
2022/02/25 00:54:53;;;;;;;1.50;1.25;;;;;;;2.17;87.24;100690.72;4914779;28;20064;-84
2022/02/25 00:57:19;;;;;;;4.22;1.33;;;;;;;2.17;87.73;100689.84;4915526;29;20062;-86
2022/02/25 00:59:46;;;;;;;3.50;1.20;;;;;;;2.19;87.34;100690.75;4897692;29;20051;-82
2022/02/25 01:02:12;;;;;;;1.65;0.93;;;;;;;2.29;87.48;100695.31;4918441;29;20044;-82
2022/02/25 01:04:39;;;;;;;3.95;1.38;;;;;;;2.38;86.71;100705.00;4915615;28;20135;-83
2022/02/25 01:07:06;;;;;;;3.35;0.90;;;;;;;2.44;85.99;100706.03;4927436;28;20067;-84
2022/02/25 01:09:32;;;;;;;4.40;0.85;;;;;;;2.48;85.78;100719.91;4901599;29;20044;-84
2022/02/25 01:11:59;;;;;;;1.50;1.38;;;;;;;2.48;85.49;100714.75;4914294;28;20189;-83
2022/02/25 01:14:25;;;;;;;1.75;0.68;;;;;;;2.44;85.46;100720.69;4900074;29;20055;-85
2022/02/25 01:16:52;;;;;;;4.18;1.20;;;;;;;2.42;85.80;100718.03;4917453;28;20056;-82
2022/02/25 01:19:18;;;;;;;1.85;0.43;;;;;;;2.41;85.62;100718.00;4928403;28;20062;-83
2022/02/25 01:21:46;;;;;;;1.90;0.90;;;;;;;2.40;85.72;100718.81;4913416;29;20055;-85
2022/02/25 01:24:13;;;;;;;12.45;0.80;;;;;;;2.41;84.90;100720.59;4895278;29;20077;-85
2022/02/25 01:26:39;;;;;;;7.00;1.35;;;;;;;2.44;85.05;100734.47;4908323;29;20052;-83
2022/02/25 01:29:06;;;;;;;3.33;0.98;;;;;;;2.45;84.83;100732.75;4929462;28;20063;-83
2022/02/25 01:31:32;;;;;;;5.70;1.65;;;;;;;2.47;84.61;100726.78;4916792;29;20060;-83
2022/02/25 01:33:59;;;;;;;1.60;0.65;;;;;;;2.52;84.00;100731.22;4894610;29;20510;-82
2022/02/25 01:36:26;;;;;;;3.15;1.20;;;;;;;2.56;83.91;100735.63;4914690;29;20051;-83
2022/02/25 01:38:52;;;;;;;2.95;1.20;;;;;;;2.58;82.91;100739.09;4901029;29;20051;-81
2022/02/25 01:41:19;;;;;;;5.43;2.13;;;;;;;2.58;82.39;100746.84;4915447;29;20463;-85
2022/02/25 01:43:46;;;;;;;3.67;1.05;;;;;;;2.60;82.36;100742.59;4908988;29;20091;-83
2022/02/25 01:46:13;;;;;;;3.50;0.73;;;;;;;2.61;81.67;100755.56;4912788;29;20135;-85
2022/02/25 01:48:39;;;;;;;2.15;0.63;;;;;;;2.59;81.13;100746.03;4918602;29;20478;-83
2022/02/25 01:51:06;;;;;;;1.90;0.80;;;;;;;2.51;81.49;100750.13;4916113;29;20055;-84
2022/02/25 01:53:33;;;;;;;2.65;1.00;;;;;;;2.41;82.33;100751.59;4913858;29;20048;-82
2022/02/25 01:55:59;;;;;;;7.30;1.63;;;;;;;2.36;82.44;100737.69;4897723;29;20051;-83
2022/02/25 01:58:26;;;;;;;2.80;1.65;;;;;;;2.29;82.82;100755.63;4900462;29;20059;-82
2022/02/25 02:00:53;;;;;;;5.75;1.60;;;;;;;2.23;83.45;100759.72;4898422;29;20043;-83
2022/02/25 02:03:20;;;;;;;4.22;1.30;;;;;;;2.15;84.69;100742.34;4915785;29;20055;-84
2022/02/25 02:05:46;;;;;;;2.53;1.50;;;;;;;2.11;84.93;100762.84;4915305;29;20765;-83
2022/02/25 02:08:13;;;;;;;7.45;3.95;;;;;;;2.04;85.73;100754.06;4911203;29;20063;-84
2022/02/25 02:10:39;;;;;;;14.10;2.17;;;;;;;2.00;86.05;100757.41;4897303;29;20482;-85
2022/02/25 02:13:06;;;;;;;4.10;2.35;;;;;;;1.96;86.03;100751.28;4912957;29;20056;-84
2022/02/25 02:15:33;;;;;;;5.68;1.92;;;;;;;1.95;86.03;100757.25;4923003;28;20688;-85
2022/02/25 02:17:59;;;;;;;3.58;1.48;;;;;;;1.93;86.22;100753.78;4928134;28;20058;-85
2022/02/25 02:20:26;;;;;;;6.43;2.85;;;;;;;1.91;86.84;100760.59;4905033;28;20516;-85
2022/02/25 02:22:52;;;;;;;4.55;2.30;;;;;;;1.88;86.47;100754.47;4909134;29;20059;-85
2022/02/25 02:25:19;;;;;;;2.22;2.00;;;;;;;1.79;87.13;100755.97;4926829;28;20047;-87
2022/02/25 02:30:30;;;;;;;2.13;1.88;;;;;;;1.74;87.98;100769.56;4912809;29;20035;-84
2022/02/25 02:32:56;;;;;;;4.50;2.40;;;;;;;1.70;87.93;100747.97;4898477;29;20645;-85
2022/02/25 02:35:23;;;;;;;7.30;2.25;;;;;;;1.69;88.15;100768.56;4928750;28;20405;-85
2022/02/25 02:37:51;;;;;;;7.38;1.95;;;;;;;1.63;88.31;100767.56;4928935;28;20059;-87
2022/02/25 02:40:17;;;;;;;8.95;2.92;;;;;;;1.63;88.49;100779.56;4914960;29;20048;-86
2022/02/25 02:42:44;;;;;;;3.45;1.98;;;;;;;1.60;88.66;100779.47;4923007;28;20056;-84
2022/02/25 02:45:11;;;;;;;8.30;1.80;;;;;;;1.60;88.42;100779.47;4897960;29;20059;-86
2022/02/25 02:47:38;;;;;;;2.97;1.92;;;;;;;1.57;88.49;100782.00;4912476;29;20059;-85
2022/02/25 02:50:05;;;;;;;6.47;2.85;;;;;;;1.53;88.76;100787.88;4905867;29;20054;-87
2022/02/25 02:52:32;;;;;;;3.83;2.90;;;;;;;1.48;89.31;100780.84;4914023;29;20054;-84
2022/02/25 02:54:58;;;;;;;4.88;2.13;;;;;;;1.47;88.97;100789.47;4894395;29;20051;-85
2022/02/25 02:57:25;;;;;;;2.30;1.92;;;;;;;1.49;88.73;100774.88;4904980;29;20048;-87
2022/02/25 02:59:54;;;;;;;4.15;3.28;;;;;;;1.55;88.96;100787.09;4924717;29;20895;-84
2022/02/25 03:02:21;;;;;;;2.88;2.20;;;;;;;1.60;88.66;100782.97;4904688;29;20071;-84
2022/02/25 03:04:48;;;;;;;3.38;2.50;;;;;;;1.67;87.82;100776.28;4905946;29;20055;-85
2022/02/25 03:07:16;;;;;;;8.50;2.40;;;;;;;1.65;87.87;100785.66;4935221;28;20314;-86
2022/02/25 03:09:58;;;;;;;5.18;2.53;;;;;;;1.60;87.85;100772.63;4906421;29;20062;-85
2022/02/25 03:12:31;;;;;;;5.00;2.97;;;;;;;1.60;87.52;100790.69;4929175;28;20073;-83
2022/02/25 03:15:00;;;;;;;4.68;2.70;;;;;;;1.59;87.71;100788.03;4922268;29;20051;-85
2022/02/25 03:17:27;;;;;;;5.75;2.85;;;;;;;1.65;87.23;100789.09;4910925;29;20052;-84
2022/02/25 03:19:53;;;;;;;4.38;2.75;;;;;;;1.69;86.79;100782.34;4895937;29;20051;-84
2022/02/25 03:22:20;;;;;;;8.55;3.60;;;;;;;1.79;86.15;100797.25;4914945;28;20135;-86
2022/02/25 03:24:46;;;;;;;4.18;2.90;;;;;;;1.88;85.23;100795.75;4922885;28;20047;-84
2022/02/25 03:27:13;;;;;;;4.47;2.70;;;;;;;1.92;85.23;100801.06;4909699;29;20055;-86
2022/02/25 03:29:39;;;;;;;3.60;2.70;;;;;;;2.00;84.73;100803.00;4912398;29;20055;-85
2022/02/25 03:32:06;;;;;;;7.25;4.45;;;;;;;2.05;84.13;100809.19;4912674;29;20059;-83
2022/02/25 03:34:33;;;;;;;7.55;5.30;;;;;;;2.08;83.85;100809.25;4914973;29;20074;-86
2022/02/25 03:36:59;;;;;;;8.18;2.42;;;;;;;2.11;83.65;100814.50;4911643;28;20051;-87
2022/02/25 03:39:26;;;;;;;9.38;4.28;;;;;;;2.15;83.54;100814.66;4917887;29;20083;-85
2022/02/25 03:41:52;;;;;;;10.32;3.38;;;;;;;2.17;83.31;100812.09;4933445;28;20050;-84
2022/02/25 03:44:19;;;;;;;5.20;2.95;;;;;;;2.20;83.21;100809.59;4932322;28;20047;-84
2022/02/25 03:46:47;;;;;;;8.57;3.30;;;;;;;2.23;82.68;100824.28;4923572;28;20051;-83
2022/02/25 03:49:14;;;;;;;6.85;3.00;;;;;;;2.22;83.17;100826.00;4922167;28;20054;-84
2022/02/25 03:51:40;;;;;;;9.48;3.22;;;;;;;2.28;82.39;100833.94;4903345;28;20039;-82
2022/02/25 03:54:07;;;;;;;7.60;3.08;;;;;;;2.29;82.74;100827.06;4934658;28;20111;-84
2022/02/25 03:56:33;;;;;;;9.43;3.88;;;;;;;2.29;82.37;100819.31;4920200;28;20055;-83
2022/02/25 03:59:00;;;;;;;3.67;3.08;;;;;;;2.27;81.61;100832.19;4906320;28;20249;-83
2022/02/25 04:01:27;;;;;;;5.80;3.25;;;;;;;2.28;82.01;100823.59;4925409;28;20895;-85
2022/02/25 04:03:54;;;;;;;6.45;3.50;;;;;;;2.30;82.18;100832.25;4920825;28;20047;-83
2022/02/25 04:06:21;;;;;;;5.57;3.50;;;;;;;2.32;81.49;100811.63;4911488;28;20081;-85
2022/02/25 04:08:48;;;;;;;8.68;3.47;;;;;;;2.32;81.85;100829.72;4920766;28;20823;-85
2022/02/25 04:11:15;;;;;;;5.72;3.78;;;;;;;2.33;81.71;100836.63;4931645;28;20107;-85
2022/02/25 04:13:42;;;;;;;7.03;3.70;;;;;;;2.36;81.09;100838.44;4934788;28;20058;-85
2022/02/25 04:16:09;;;;;;;8.00;4.05;;;;;;;2.38;81.07;100826.44;4935685;28;20149;-86
2022/02/25 04:18:35;;;;;;;5.65;3.53;;;;;;;2.36;81.84;100838.44;4935023;28;20511;-87
2022/02/25 04:21:02;;;;;;;7.32;3.67;;;;;;;2.36;81.52;100834.16;4906054;28;20341;-86
2022/02/25 04:23:29;;;;;;;5.45;3.45;;;;;;;2.36;81.11;100839.31;4919114;28;20050;-86
2022/02/25 04:25:55;;;;;;;8.27;3.70;;;;;;;2.38;80.33;100826.44;4913283;28;20055;-87
2022/02/25 04:28:22;;;;;;;10.85;3.70;;;;;;;2.41;80.44;100848.06;4919665;28;20276;-86
2022/02/25 04:30:48;;;;;;;8.85;3.25;;;;;;;2.39;80.57;100836.81;4940149;28;20101;-82
2022/02/25 04:33:15;;;;;;;7.00;2.33;;;;;;;2.41;80.48;100824.81;4913525;28;20058;-85
2022/02/25 04:35:42;;;;;;;10.70;3.80;;;;;;;2.42;80.33;100833.44;4903129;28;20067;-83
2022/02/25 04:38:09;;;;;;;5.15;3.33;;;;;;;2.44;79.99;100831.78;4934755;28;20065;-82
2022/02/25 04:40:36;;;;;;;6.40;2.90;;;;;;;2.46;79.50;100838.75;4915315;28;20039;-84
2022/02/25 04:43:05;;;;;;;7.20;3.58;;;;;;;2.45;79.86;100836.09;4899951;28;20452;-86
2022/02/25 04:45:32;;;;;;;9.85;3.75;;;;;;;2.47;79.58;100835.31;4917999;28;20374;-83
2022/02/25 04:47:58;;;;;;;6.72;3.28;;;;;;;2.48;79.28;100836.19;4916367;28;20051;-82
2022/02/25 04:50:25;;;;;;;4.00;3.50;;;;;;;2.52;79.53;100844.91;4901324;28;20549;-88
2022/02/25 04:52:52;;;;;;;7.82;3.65;;;;;;;2.53;79.61;100837.19;4927205;28;20051;-86
2022/02/25 04:55:19;;;;;;;6.40;4.55;;;;;;;2.52;79.70;100848.34;4926054;28;20393;-84
2022/02/25 04:57:47;;;;;;;8.02;3.60;;;;;;;2.53;79.40;100844.06;4912333;28;20055;-84
2022/02/25 05:00:15;;;;;;;7.97;3.17;;;;;;;2.52;80.12;100844.91;4914239;28;20047;-85
2022/02/25 05:02:44;;;;;;;7.80;3.70;;;;;;;2.51;80.28;100843.16;4899556;28;20061;-84
2022/02/25 05:05:11;;;;;;;12.40;3.85;;;;;;;2.48;80.08;100856.88;4930674;28;20407;-83
2022/02/25 05:07:38;;;;;;;8.77;3.17;;;;;;;2.44;80.22;100842.13;4909072;28;20425;-84
2022/02/25 05:10:06;;;;;;;8.07;3.15;;;;;;;2.36;80.72;100841.91;4932658;28;20042;-82
2022/02/25 05:12:32;;;;;;;6.90;3.20;;;;;;;2.30;80.95;100849.47;4898942;28;20061;-85
2022/02/25 05:20:33;;;;;;;4.35;3.20;;;;;;;2.24;82.05;100846.72;4838928;28;20057;-86
2022/02/25 05:23:02;;;;;;;5.43;3.00;;;;;;;2.24;82.08;100845.03;4895816;28;21022;-87
2022/02/25 05:25:30;;;;;;;10.48;3.60;;;;;;;2.27;82.06;100854.56;4897153;28;20062;-87
2022/02/25 05:27:57;;;;;;;5.20;3.25;;;;;;;2.30;81.95;100863.25;4923699;28;20055;-86
2022/02/25 05:30:25;;;;;;;8.38;4.43;;;;;;;2.34;81.87;100860.78;4930025;28;20134;-86
2022/02/25 05:32:52;;;;;;;4.13;2.78;;;;;;;2.38;81.19;100860.03;4930600;28;20472;-84
2022/02/25 05:35:19;;;;;;;4.57;2.83;;;;;;;2.42;81.51;100854.09;4894680;28;20057;-85
2022/02/25 05:37:48;;;;;;;5.68;2.35;;;;;;;2.43;81.62;100856.72;4934274;28;20054;-84
2022/02/25 05:40:17;;;;;;;9.75;3.10;;;;;;;2.43;81.58;100846.41;4901300;28;20056;-82
2022/02/25 05:42:45;;;;;;;2.92;2.67;;;;;;;2.44;81.62;100858.47;4928448;28;20051;-83
2022/02/25 05:45:13;;;;;;;8.15;2.83;;;;;;;2.43;81.29;100846.41;4903862;28;20051;-85
2022/02/25 05:47:41;;;;;;;10.70;3.85;;;;;;;2.34;81.81;100850.44;4917136;28;20047;-84
2022/02/25 05:50:14;;;;;;;4.53;2.95;;;;;;;2.24;82.13;100833.81;4913891;28;20051;-85
2022/02/25 05:52:43;;;;;;;5.00;3.10;;;;;;;2.13;82.51;100851.59;4918023;28;20116;-85
2022/02/25 05:55:10;;;;;;;8.20;4.30;;;;;;;2.04;83.29;100857.34;4909103;28;20054;-85
2022/02/25 05:57:38;;;;;;;9.38;3.53;;;;;;;1.94;84.18;100856.22;4882154;28;20129;-88
2022/02/25 06:00:08;;;;;;;9.10;2.83;;;;;;;1.88;84.80;100856.03;4935435;28;20165;-87
2022/02/25 06:02:35;;;;;;;4.95;2.78;;;;;;;1.85;85.17;100860.22;4911991;28;20505;-86
2022/02/25 06:05:03;;;;;;;13.73;3.67;;;;;;;1.80;85.50;100860.97;4899281;28;20743;-86
2022/02/25 06:07:30;;;;;;;7.85;2.42;;;;;;;1.78;85.72;100861.75;4900732;28;20062;-86
2022/02/25 06:09:57;;;;;;;5.32;3.05;;;;;;;1.70;86.39;100871.84;4877031;28;20210;-86
2022/02/25 06:12:23;;;;;;;7.60;3.28;;;;;;;1.67;86.74;100869.19;4915298;28;20035;-86
2022/02/25 06:14:50;;;;;;;9.43;3.50;;;;;;;1.65;86.91;100861.34;4915712;28;20178;-84
2022/02/25 06:17:16;;;;;;;7.88;3.00;;;;;;;1.62;87.30;100866.44;4910519;28;20799;-87
2022/02/25 06:19:43;;;;;;;15.52;4.68;;;;;;;1.58;87.29;100867.19;4929725;28;20058;-88
2022/02/25 06:22:10;;;;;;;3.90;3.05;;;;;;;1.61;87.36;100869.84;4930709;28;20111;-87
2022/02/25 06:24:37;;;;;;;8.48;3.58;;;;;;;1.65;87.41;100870.81;4894375;28;20047;-87
2022/02/25 06:27:04;;;;;;;11.90;3.55;;;;;;;1.66;87.29;100875.16;4913979;28;20373;-86
2022/02/25 06:29:30;;;;;;;7.72;2.50;;;;;;;1.60;87.19;100873.28;4931722;28;20827;-86
2022/02/25 06:31:57;;;;;;;5.30;2.90;;;;;;;1.57;87.63;100880.03;4928002;28;20876;-85
2022/02/25 06:34:23;;;;;;;7.65;3.50;;;;;;;1.62;87.51;100881.06;4932595;28;20054;-86
2022/02/25 06:36:50;;;;;;;9.25;3.17;;;;;;;1.58;88.08;100886.94;4929714;28;20412;-85
2022/02/25 06:39:16;;;;;;;10.73;3.08;;;;;;;1.61;87.83;100887.91;4932920;28;20058;-85
2022/02/25 06:41:43;;;;;;;8.55;3.22;;;;;;;1.60;88.03;100891.34;4917478;28;20073;-85
2022/02/25 06:44:10;;;;;;;8.50;3.88;;;;;;;1.57;88.11;100896.38;4902792;28;20109;-84
2022/02/25 06:46:37;;;;;;;3.88;2.85;;;;;;;1.58;88.09;100899.84;4919273;28;20806;-87
2022/02/25 06:49:04;;;;;;;8.65;2.90;;;;;;;1.62;87.82;100892.25;4917990;28;20062;-85
2022/02/25 06:51:31;;;;;;;8.75;2.85;;;;;;;1.62;87.81;100892.25;4900385;28;20102;-85
2022/02/25 06:53:59;;;;;;;9.60;3.33;;;;;;;1.65;87.58;100892.31;4919922;28;20051;-86
2022/02/25 06:56:25;;;;;;;9.45;2.88;;;;;;;1.70;87.11;100901.94;4916177;28;20222;-86
2022/02/25 06:58:52;;;;;;;5.65;2.95;;;;;;;1.75;87.22;100898.66;4916028;28;20047;-86
2022/02/25 07:01:18;;;;;;;4.32;3.05;;;;;;;1.72;87.13;100901.16;4923704;28;20342;-85
2022/02/25 07:03:45;;;;;;;5.78;2.97;;;;;;;1.73;87.28;100895.16;4912511;28;21363;-87
2022/02/25 07:06:12;;;;;;;7.47;3.03;;;;;;;1.74;86.88;100896.91;4918182;28;20051;-85
2022/02/25 07:08:38;;;;;;;5.97;2.53;;;;;;;1.73;87.42;100887.41;4918161;28;20073;-86
2022/02/25 07:11:05;;;;;;;7.57;3.25;;;;;;;1.78;86.90;100903.91;4915307;28;20054;-85
2022/02/25 07:13:31;;;;;;;7.25;3.50;;;;;;;1.85;86.58;100897.22;4911659;28;20061;-86
2022/02/25 07:15:58;;;;;;;10.77;2.72;;;;;;;1.92;85.71;100895.72;4911601;28;20131;-86
2022/02/25 07:18:25;;;;;;;9.60;2.88;;;;;;;1.93;85.81;100911.25;4921068;28;20150;-86
2022/02/25 07:20:52;;;;;;;4.80;2.50;;;;;;;2.00;85.49;100908.88;4942388;28;20842;-85
2022/02/25 07:23:19;;;;;;;12.13;3.63;;;;;;;2.05;85.15;100897.84;4940762;28;20047;-86
2022/02/25 07:25:46;;;;;;;7.03;2.55;;;;;;;2.13;84.20;100908.41;4920145;28;20588;-84
2022/02/25 07:28:12;;;;;;;8.43;3.40;;;;;;;2.25;84.02;100895.84;4938827;28;20047;-85
2022/02/25 07:30:39;;;;;;;5.90;2.10;;;;;;;2.56;82.70;100917.38;4929341;28;20051;-85
2022/02/25 07:33:06;;;;;;;4.07;1.55;;;;;;;2.93;80.23;100922.69;4921107;28;20047;-84
2022/02/25 07:35:32;;;;;;;9.73;1.88;;;;;;;3.29;77.48;100916.72;4940604;28;20055;-85
2022/02/25 07:38:00;;;;;;;6.70;2.20;;;;;;;3.50;76.61;100918.94;4923203;28;20115;-88
2022/02/25 07:40:28;;;;;;;11.10;2.60;;;;;;;3.68;75.85;100918.50;4923265;28;20059;-85
2022/02/25 07:42:56;;;;;;;6.15;1.80;;;;;;;3.75;74.00;100917.81;4913386;29;20066;-85
2022/02/25 07:45:25;;;;;;;9.73;2.40;;;;;;;3.62;74.28;100928.72;4921499;28;20063;-85
2022/02/25 07:47:52;;;;;;;9.57;1.95;;;;;;;3.48;74.89;100921.50;4905336;29;20537;-87
2022/02/25 07:50:18;;;;;;;9.63;2.65;;;;;;;3.28;75.95;100925.31;4920093;29;20056;-86
2022/02/25 07:52:45;;;;;;;4.88;2.08;;;;;;;3.17;76.50;100931.91;4900988;29;20048;-87
2022/02/25 07:55:14;;;;;;;9.88;2.30;;;;;;;3.11;76.42;100928.31;4917009;28;20170;-87
2022/02/25 07:57:40;;;;;;;7.65;1.50;;;;;;;3.13;76.00;100915.47;4921894;29;20433;-83
2022/02/25 08:00:12;;;;;;;7.78;2.53;;;;;;;3.29;75.74;100930.50;4919534;29;20075;-87
2022/02/25 08:02:39;;;;;;;1.88;1.13;;;;;;;3.48;75.07;100941.31;4923229;29;20044;-84
2022/02/25 08:05:07;;;;;;;9.57;2.25;;;;;;;3.63;74.84;100948.59;4902720;29;20054;-86
2022/02/25 08:07:34;;;;;;;4.88;2.50;;;;;;;3.67;74.22;100944.38;4917156;29;20058;-84
2022/02/25 08:10:01;;;;;;;2.90;1.95;;;;;;;3.72;73.50;100946.22;4919747;28;20043;-87
2022/02/25 08:12:28;;;;;;;3.55;1.50;;;;;;;3.68;73.26;100941.81;4898983;29;20048;-86
2022/02/25 08:14:54;;;;;;;6.63;1.73;;;;;;;3.68;73.09;100940.94;4903961;29;20142;-84
2022/02/25 08:17:23;;;;;;;5.90;1.63;;;;;;;3.58;73.73;100930.34;4920819;29;20138;-86
2022/02/25 08:19:49;;;;;;;7.95;1.95;;;;;;;3.56;73.99;100934.63;4915396;29;20070;-84
2022/02/25 08:22:18;;;;;;;6.82;1.92;;;;;;;3.56;74.35;100957.03;4919211;29;20040;-84
2022/02/25 08:24:45;;;;;;;5.68;2.10;;;;;;;3.63;74.21;100933.06;4919038;29;20057;-87
2022/02/25 08:27:12;;;;;;;5.70;3.15;;;;;;;3.64;74.31;100956.41;4900545;29;20055;-84
2022/02/25 08:29:39;;;;;;;8.38;1.98;;;;;;;3.68;73.91;100947.00;4918972;29;20455;-85
2022/02/25 08:32:06;;;;;;;9.70;2.00;;;;;;;3.70;74.25;100950.47;4920083;29;20047;-86
2022/02/25 08:34:33;;;;;;;4.32;2.08;;;;;;;3.68;74.26;100952.19;4899565;29;20723;-86
2022/02/25 08:37:00;;;;;;;10.40;2.10;;;;;;;3.66;73.87;100930.53;4920329;29;20062;-84
2022/02/25 08:39:27;;;;;;;5.05;1.75;;;;;;;3.64;74.48;100946.03;4920014;28;20062;-84
2022/02/25 08:41:54;;;;;;;7.45;2.20;;;;;;;3.68;74.20;100943.50;4918307;28;20142;-87
2022/02/25 08:44:22;;;;;;;3.17;1.92;;;;;;;3.69;74.04;100943.56;4908495;28;20051;-86
2022/02/25 08:46:49;;;;;;;9.60;2.45;;;;;;;3.66;74.27;100947.78;4924684;28;20054;-85
2022/02/25 08:49:16;;;;;;;8.35;2.35;;;;;;;3.54;74.84;100954.41;4920914;28;20643;-86
2022/02/25 08:51:43;;;;;;;6.85;2.47;;;;;;;3.54;75.12;100967.34;4938456;28;20051;-84
2022/02/25 08:54:11;;;;;;;8.55;2.88;;;;;;;3.69;75.05;100958.22;4917089;28;20054;-85
2022/02/25 08:56:39;;;;;;;6.63;3.85;;;;;;;3.85;74.25;100960.34;4919440;28;20058;-86
2022/02/25 08:59:07;;;;;;;8.02;3.53;;;;;;;3.96;73.68;100968.34;4924951;28;20450;-87
2022/02/25 09:01:34;;;;;;;7.25;2.08;;;;;;;4.09;73.67;100972.09;4920339;28;20039;-86
2022/02/25 09:04:01;;;;;;;10.20;1.90;;;;;;;4.29;72.46;100962.19;4909101;28;20059;-87
2022/02/25 09:06:30;;;;;;;9.75;2.08;;;;;;;4.32;71.71;100941.53;4921709;28;20114;-86
2022/02/25 09:08:58;;;;;;;9.45;2.65;;;;;;;4.27;71.92;100961.28;4935522;28;20043;-86
2022/02/25 09:11:25;;;;;;;17.70;4.60;;;;;;;4.24;72.27;100953.44;4921953;28;20165;-85
2022/02/25 09:13:52;;;;;;;9.07;3.10;;;;;;;4.26;72.31;100938.78;4922419;28;20154;-83
2022/02/25 09:16:18;;;;;;;14.90;2.58;;;;;;;4.20;72.51;100955.09;4917664;28;20066;-86
2022/02/25 09:18:45;;;;;;;6.38;2.38;;;;;;;4.24;72.86;100962.09;4937889;28;20066;-86
2022/02/25 09:21:12;;;;;;;13.85;2.65;;;;;;;4.28;72.61;100937.97;4921071;28;20065;-86
2022/02/25 09:23:40;;;;;;;7.68;3.15;;;;;;;4.27;72.25;100950.91;4916718;28;20180;-87
2022/02/25 09:26:07;;;;;;;10.68;3.15;;;;;;;4.18;72.87;100950.72;4921294;28;20129;-86
2022/02/25 09:28:35;;;;;;;7.38;2.83;;;;;;;4.01;73.42;100942.56;4905914;28;20547;-82
2022/02/25 09:31:01;;;;;;;6.97;2.85;;;;;;;3.97;74.18;100951.97;4906547;28;20129;-86
2022/02/25 09:33:28;;;;;;;8.23;3.15;;;;;;;3.94;74.64;100954.50;4937437;28;20490;-84
2022/02/25 09:35:55;;;;;;;9.30;3.38;;;;;;;3.91;75.17;100949.25;4915074;28;20050;-83
2022/02/25 09:38:21;;;;;;;14.70;3.10;;;;;;;3.89;75.43;100951.78;4918249;28;20050;-86
2022/02/25 09:40:48;;;;;;;8.38;3.35;;;;;;;3.91;75.79;100957.91;4935003;28;20090;-84
2022/02/25 09:43:14;;;;;;;11.23;3.35;;;;;;;3.88;76.39;100962.13;4915339;28;20059;-84
2022/02/25 09:45:41;;;;;;;9.43;2.72;;;;;;;3.74;78.07;100970.47;4918198;28;20055;-86
2022/02/25 09:48:11;;;;;;;11.68;3.05;;;;;;;3.64;79.39;100969.34;4935126;28;20058;-84
2022/02/25 09:50:38;;;;;;;7.10;2.95;;;;;;;3.56;80.93;100976.06;4918478;28;20065;-85
2022/02/25 09:53:04;;;;;;;12.00;3.50;;;;;;;3.59;80.97;100983.03;4919978;28;20842;-85
2022/02/25 09:55:34;;;;;;;7.45;2.65;;;;;;;3.79;80.70;100976.63;4905867;28;20134;-88
2022/02/25 09:58:07;;;;;;;12.38;3.15;;;;;;;3.85;80.94;100978.47;4915421;28;20062;-85
2022/02/25 10:00:36;;;;;;;7.28;2.70;;;;;;;3.80;80.88;100983.53;4904931;28;20070;-83
2022/02/25 10:03:07;;;;;;;10.10;3.47;;;;;;;3.74;81.95;100979.91;4920652;28;20047;-83
2022/02/25 10:05:36;;;;;;;4.80;2.72;;;;;;;3.77;81.55;100978.28;4935117;28;20407;-82
2022/02/25 10:08:16;;;;;;;5.47;3.40;;;;;;;3.80;81.95;100983.53;4920364;28;20973;-84
2022/02/25 10:10:50;;;;;;;10.18;3.58;;;;;;;3.81;81.30;100999.97;4933553;28;20050;-86
2022/02/25 10:13:20;;;;;;;9.48;3.33;;;;;;;3.80;82.04;100993.88;4920522;28;20047;-85
2022/02/25 10:15:50;;;;;;;5.75;3.13;;;;;;;3.79;82.21;100991.25;4920314;28;20158;-85
2022/02/25 10:18:19;;;;;;;7.15;3.15;;;;;;;3.75;82.48;100992.03;4933108;28;20066;-85
2022/02/25 10:20:47;;;;;;;4.95;3.03;;;;;;;3.74;82.29;101001.53;4922185;28;20051;-84
2022/02/25 10:23:34;;;;;;;8.18;3.85;;;;;;;3.83;82.08;101018.97;4936304;28;20057;-85
2022/02/25 10:26:22;;;;;;;10.32;3.05;;;;;;;3.80;81.69;101017.19;4930521;28;20047;-85
2022/02/25 10:29:02;;;;;;;7.53;3.25;;;;;;;3.78;81.52;101023.16;4923229;28;20051;-86
2022/02/25 10:31:34;;;;;;;6.72;2.80;;;;;;;3.68;82.13;101024.66;4921136;28;20158;-84
2022/02/25 10:34:11;;;;;;;5.93;3.28;;;;;;;3.67;82.40;101024.63;4935304;28;20060;-84
2022/02/25 10:36:51;;;;;;;9.25;4.10;;;;;;;3.66;82.98;101018.56;4920581;28;23194;-87
2022/02/25 10:39:21;;;;;;;6.35;3.28;;;;;;;3.71;82.89;101029.91;4930572;28;20055;-86
2022/02/25 10:42:06;;;;;;;5.32;3.33;;;;;;;3.76;83.60;101030.03;4903875;28;21146;-85
2022/02/25 10:44:41;;;;;;;22.17;4.50;;;;;;;3.85;83.38;101032.00;4927772;28;20114;-88
2022/02/25 10:47:32;;;;;;;8.77;3.40;;;;;;;3.84;83.44;101018.16;4927663;28;20815;-86
2022/02/25 10:50:08;;;;;;;8.18;3.30;;;;;;;3.81;83.25;101031.91;4915227;29;20054;-85
2022/02/25 10:52:39;;;;;;;8.23;4.22;;;;;;;3.89;83.03;101041.59;4895884;29;20067;-84
2022/02/25 10:55:22;;;;;;;12.18;3.47;;;;;;;3.98;81.93;101031.44;4932395;28;20094;-87
2022/02/25 10:57:52;;;;;;;10.93;4.20;;;;;;;4.01;81.81;101048.78;4928861;28;20202;-86
2022/02/25 11:00:20;;;;;;;13.90;3.95;;;;;;;4.25;80.56;101038.09;4910040;29;20055;-87
2022/02/25 11:02:49;;;;;;;7.07;3.70;;;;;;;4.45;79.97;101039.44;4930551;28;20048;-86
2022/02/25 11:05:25;;;;;;;15.68;4.38;;;;;;;4.65;78.73;101033.81;4910829;29;20069;-87
2022/02/25 11:08:01;;;;;;;7.97;3.33;;;;;;;4.86;78.13;101040.28;4913622;28;20066;-85
2022/02/25 11:10:34;;;;;;;12.48;4.40;;;;;;;4.98;76.62;101032.78;4929877;28;20056;-86
2022/02/25 11:13:05;;;;;;;6.90;3.10;;;;;;;5.32;75.51;101042.91;4927671;28;20048;-85
2022/02/25 11:15:35;;;;;;;11.68;3.92;;;;;;;5.66;74.01;101057.41;4932012;28;20108;-86
2022/02/25 11:18:03;;;;;;;9.50;3.78;;;;;;;5.78;72.42;101046.34;4915150;29;20055;-85
2022/02/25 11:20:34;;;;;;;5.35;2.92;;;;;;;5.78;71.64;101012.59;4912368;29;20061;-83
2022/02/25 11:23:04;;;;;;;3.92;3.47;;;;;;;5.84;72.56;101043.88;4909994;29;20051;-83
2022/02/25 11:25:32;;;;;;;11.93;3.42;;;;;;;6.05;71.01;101043.38;4930161;28;20047;-84
2022/02/25 11:27:59;;;;;;;6.72;2.90;;;;;;;6.09;69.54;101031.31;4926269;28;20402;-83
2022/02/25 11:30:57;;;;;;;7.65;2.53;;;;;;;5.84;70.82;101042.97;4930139;28;20415;-85
2022/02/25 11:33:26;;;;;;;6.95;2.88;;;;;;;5.91;70.31;101052.63;4911380;29;20853;-87
2022/02/25 11:36:02;;;;;;;5.47;2.25;;;;;;;6.00;70.15;101050.22;4898104;29;20756;-84
2022/02/25 11:38:45;;;;;;;5.18;2.75;;;;;;;6.22;69.35;101053.13;4915170;29;20402;-85
2022/02/25 11:41:21;;;;;;;6.13;2.65;;;;;;;6.16;68.99;101053.06;4925470;28;20454;-84
2022/02/25 11:43:59;;;;;;;4.35;2.25;;;;;;;6.01;69.43;101048.47;4931689;28;20587;-84